sensor_id;sensor_type;location;lat;lon;timestamp;pressure;altitude;pressure_sealevel;temperature;humidity
55187;BME280;55457;52.002;5.464;2023-04-22T00:01:41;100624.06;;;20.33;39.77
55187;BME280;55457;52.002;5.464;2023-04-22T00:04:06;100623.25;;;20.32;39.75
55187;BME280;55457;52.002;5.464;2023-04-22T00:06:33;100627.84;;;20.32;39.87
55187;BME280;55457;52.002;5.464;2023-04-22T00:08:58;100627.84;;;20.32;39.90
55187;BME280;55457;52.002;5.464;2023-04-22T00:11:24;100621.59;;;20.31;39.98
55187;BME280;55457;52.002;5.464;2023-04-22T00:13:49;100622.66;;;20.30;39.90
55187;BME280;55457;52.002;5.464;2023-04-22T00:16:14;100620.78;;;20.31;39.88
55187;BME280;55457;52.002;5.464;2023-04-22T00:18:40;100615.38;;;20.31;39.78
55187;BME280;55457;52.002;5.464;2023-04-22T00:21:05;100609.97;;;20.31;39.93
55187;BME280;55457;52.002;5.464;2023-04-22T00:23:32;100602.88;;;20.30;39.98
55187;BME280;55457;52.002;5.464;2023-04-22T00:25:57;100611.00;;;20.30;39.66
55187;BME280;55457;52.002;5.464;2023-04-22T00:28:23;100615.59;;;20.29;39.87
55187;BME280;55457;52.002;5.464;2023-04-22T00:30:48;100613.72;;;20.30;39.95
55187;BME280;55457;52.002;5.464;2023-04-22T00:33:13;100606.66;;;20.29;39.87
55187;BME280;55457;52.002;5.464;2023-04-22T00:35:39;100605.03;;;20.28;39.88
55187;BME280;55457;52.002;5.464;2023-04-22T00:38:04;100606.66;;;20.29;39.87
55187;BME280;55457;52.002;5.464;2023-04-22T00:40:29;100602.06;;;20.29;39.98
55187;BME280;55457;52.002;5.464;2023-04-22T00:42:55;100608.56;;;20.28;39.77
55187;BME280;55457;52.002;5.464;2023-04-22T00:45:21;100612.09;;;20.29;39.80
55187;BME280;55457;52.002;5.464;2023-04-22T00:47:47;100609.38;;;20.29;39.71
55187;BME280;55457;52.002;5.464;2023-04-22T00:50:14;100617.50;;;20.29;39.38
55187;BME280;55457;52.002;5.464;2023-04-22T00:52:39;100617.50;;;20.29;39.63
55187;BME280;55457;52.002;5.464;2023-04-22T00:55:05;100615.88;;;20.28;39.77
55187;BME280;55457;52.002;5.464;2023-04-22T00:57:31;100609.63;;;20.27;39.85
55187;BME280;55457;52.002;5.464;2023-04-22T00:59:59;100612.34;;;20.27;39.82
55187;BME280;55457;52.002;5.464;2023-04-22T01:02:24;100618.56;;;20.28;39.87
55187;BME280;55457;52.002;5.464;2023-04-22T01:04:51;100620.47;;;20.27;39.72
55187;BME280;55457;52.002;5.464;2023-04-22T01:07:18;100623.41;;;20.26;39.73
55187;BME280;55457;52.002;5.464;2023-04-22T01:09:43;100619.63;;;20.27;39.74
55187;BME280;55457;52.002;5.464;2023-04-22T01:12:09;100621.75;;;20.25;39.72
55187;BME280;55457;52.002;5.464;2023-04-22T01:14:35;100625.28;;;20.25;39.71
55187;BME280;55457;52.002;5.464;2023-04-22T01:17:00;100623.41;;;20.26;39.27
55187;BME280;55457;52.002;5.464;2023-04-22T01:19:27;100625.28;;;20.25;39.90
55187;BME280;55457;52.002;5.464;2023-04-22T01:21:53;100628.84;;;20.26;39.75
55187;BME280;55457;52.002;5.464;2023-04-22T01:24:20;100625.28;;;20.25;39.73
55187;BME280;55457;52.002;5.464;2023-04-22T01:26:46;100619.06;;;20.25;39.74
55187;BME280;55457;52.002;5.464;2023-04-22T01:29:13;100625.53;;;20.24;39.97
55187;BME280;55457;52.002;5.464;2023-04-22T01:31:38;100630.94;;;20.24;39.80
55187;BME280;55457;52.002;5.464;2023-04-22T01:34:04;100625.53;;;20.24;39.84
55187;BME280;55457;52.002;5.464;2023-04-22T01:36:30;100614.72;;;20.24;39.81
55187;BME280;55457;52.002;5.464;2023-04-22T01:38:57;100623.66;;;20.24;39.74
55187;BME280;55457;52.002;5.464;2023-04-22T01:41:23;100621.19;;;20.23;39.62
55187;BME280;55457;52.002;5.464;2023-04-22T01:43:51;100613.06;;;20.23;39.70
55187;BME280;55457;52.002;5.464;2023-04-22T01:46:16;100614.72;;;20.24;39.75
55187;BME280;55457;52.002;5.464;2023-04-22T01:48:42;100620.13;;;20.24;39.70
55187;BME280;55457;52.002;5.464;2023-04-22T01:51:07;100614.97;;;20.22;39.64
55187;BME280;55457;52.002;5.464;2023-04-22T01:53:33;100613.06;;;20.23;39.82
55187;BME280;55457;52.002;5.464;2023-04-22T01:56:00;100611.44;;;20.22;39.84
55187;BME280;55457;52.002;5.464;2023-04-22T01:58:28;100612.25;;;20.22;39.68
55187;BME280;55457;52.002;5.464;2023-04-22T02:00:53;100611.44;;;20.22;39.90
55187;BME280;55457;52.002;5.464;2023-04-22T02:03:19;100616.84;;;20.22;39.70
55187;BME280;55457;52.002;5.464;2023-04-22T02:05:44;100620.63;;;20.21;39.54
55187;BME280;55457;52.002;5.464;2023-04-22T02:08:10;100626.03;;;20.21;39.85
55187;BME280;55457;52.002;5.464;2023-04-22T02:10:35;100618.75;;;20.21;39.62
55187;BME280;55457;52.002;5.464;2023-04-22T02:13:00;100615.22;;;20.21;39.74
55187;BME280;55457;52.002;5.464;2023-04-22T02:15:26;100611.69;;;20.20;39.74
55187;BME280;55457;52.002;5.464;2023-04-22T02:17:51;100609.00;;;20.20;39.22
55187;BME280;55457;52.002;5.464;2023-04-22T02:20:17;100604.41;;;20.21;39.70
55187;BME280;55457;52.002;5.464;2023-04-22T02:22:43;100612.53;;;20.21;39.74
55187;BME280;55457;52.002;5.464;2023-04-22T02:25:09;100606.28;;;20.20;39.72
55187;BME280;55457;52.002;5.464;2023-04-22T02:27:36;100609.81;;;20.21;39.70
55187;BME280;55457;52.002;5.464;2023-04-22T02:30:02;100603.59;;;20.20;39.81
55187;BME280;55457;52.002;5.464;2023-04-22T02:32:28;100603.81;;;20.19;39.86
55187;BME280;55457;52.002;5.464;2023-04-22T02:34:53;100597.31;;;20.20;39.83
55187;BME280;55457;52.002;5.464;2023-04-22T02:37:19;100608.16;;;20.20;39.68
55187;BME280;55457;52.002;5.464;2023-04-22T02:39:45;100601.91;;;20.19;39.78
55187;BME280;55457;52.002;5.464;2023-04-22T02:42:11;100591.91;;;20.20;39.69
55187;BME280;55457;52.002;5.464;2023-04-22T02:44:36;100592.16;;;20.18;39.70
55187;BME280;55457;52.002;5.464;2023-04-22T02:47:01;100597.59;;;20.18;39.58
55187;BME280;55457;52.002;5.464;2023-04-22T02:49:28;100588.66;;;20.18;39.78
55187;BME280;55457;52.002;5.464;2023-04-22T02:51:53;100593.00;;;20.19;39.56
55187;BME280;55457;52.002;5.464;2023-04-22T02:54:18;100594.06;;;20.18;39.67
55187;BME280;55457;52.002;5.464;2023-04-22T02:56:43;100592.44;;;20.17;39.52
55187;BME280;55457;52.002;5.464;2023-04-22T02:59:10;100596.75;;;20.18;39.53
55187;BME280;55457;52.002;5.464;2023-04-22T03:01:35;100590.53;;;20.17;39.62
55187;BME280;55457;52.002;5.464;2023-04-22T03:04:00;100593.25;;;20.17;39.65
55187;BME280;55457;52.002;5.464;2023-04-22T03:06:26;100580.78;;;20.16;39.74
55187;BME280;55457;52.002;5.464;2023-04-22T03:08:51;100577.28;;;20.16;39.66
55187;BME280;55457;52.002;5.464;2023-04-22T03:11:16;100582.41;;;20.17;39.70
55187;BME280;55457;52.002;5.464;2023-04-22T03:13:42;100574.56;;;20.16;39.81
55187;BME280;55457;52.002;5.464;2023-04-22T03:16:07;100571.84;;;20.16;39.71
55187;BME280;55457;52.002;5.464;2023-04-22T03:18:32;100579.97;;;20.16;39.72
55187;BME280;55457;52.002;5.464;2023-04-22T03:20:58;100574.56;;;20.16;39.71
55187;BME280;55457;52.002;5.464;2023-04-22T03:23:24;100571.84;;;20.16;39.75
55187;BME280;55457;52.002;5.464;2023-04-22T03:25:50;100575.38;;;20.16;39.69
55187;BME280;55457;52.002;5.464;2023-04-22T03:28:16;100581.59;;;20.17;39.69
55187;BME280;55457;52.002;5.464;2023-04-22T03:30:41;100575.38;;;20.16;39.51
55187;BME280;55457;52.002;5.464;2023-04-22T03:33:06;100567.50;;;20.15;39.77
55187;BME280;55457;52.002;5.464;2023-04-22T03:35:31;100562.94;;;20.15;39.44
55187;BME280;55457;52.002;5.464;2023-04-22T03:37:57;100564.78;;;20.15;39.52
55187;BME280;55457;52.002;5.464;2023-04-22T03:40:22;100559.38;;;20.15;39.71
55187;BME280;55457;52.002;5.464;2023-04-22T03:42:47;100551.25;;;20.15;39.66
55187;BME280;55457;52.002;5.464;2023-04-22T03:45:13;100556.66;;;20.15;39.67
55187;BME280;55457;52.002;5.464;2023-04-22T03:47:38;100552.31;;;20.14;39.71
55187;BME280;55457;52.002;5.464;2023-04-22T03:50:04;100553.97;;;20.15;39.66
55187;BME280;55457;52.002;5.464;2023-04-22T03:52:29;100550.44;;;20.14;39.73
55187;BME280;55457;52.002;5.464;2023-04-22T03:54:54;100541.50;;;20.14;39.85
55187;BME280;55457;52.002;5.464;2023-04-22T03:57:20;100537.97;;;20.13;39.61
55187;BME280;55457;52.002;5.464;2023-04-22T03:59:45;100545.03;;;20.14;39.71
55187;BME280;55457;52.002;5.464;2023-04-22T04:02:10;100541.50;;;20.14;39.66
55187;BME280;55457;52.002;5.464;2023-04-22T04:04:36;100538.81;;;20.14;39.69
55187;BME280;55457;52.002;5.464;2023-04-22T04:07:01;100537.16;;;20.13;39.68
55187;BME280;55457;52.002;5.464;2023-04-22T04:09:27;100531.75;;;20.13;39.75
55187;BME280;55457;52.002;5.464;2023-04-22T04:11:52;100531.75;;;20.13;39.75
55187;BME280;55457;52.002;5.464;2023-04-22T04:14:17;100528.25;;;20.12;39.72
55187;BME280;55457;52.002;5.464;2023-04-22T04:16:43;100525.53;;;20.12;39.62
55187;BME280;55457;52.002;5.464;2023-04-22T04:19:08;100526.34;;;20.13;39.78
55187;BME280;55457;52.002;5.464;2023-04-22T04:21:34;100518.22;;;20.13;39.71
55187;BME280;55457;52.002;5.464;2023-04-22T04:23:59;100519.31;;;20.12;39.86
55187;BME280;55457;52.002;5.464;2023-04-22T04:26:25;100519.31;;;20.12;39.76
55187;BME280;55457;52.002;5.464;2023-04-22T04:28:52;100516.59;;;20.12;39.73
55187;BME280;55457;52.002;5.464;2023-04-22T04:31:17;100508.47;;;20.12;39.62
55187;BME280;55457;52.002;5.464;2023-04-22T04:33:43;100514.97;;;20.11;39.66
55187;BME280;55457;52.002;5.464;2023-04-22T04:36:08;100523.91;;;20.11;39.79
55187;BME280;55457;52.002;5.464;2023-04-22T04:38:34;100524.72;;;20.12;39.55
55187;BME280;55457;52.002;5.464;2023-04-22T04:41:00;100516.84;;;20.10;39.60
55187;BME280;55457;52.002;5.464;2023-04-22T04:43:25;100507.91;;;20.10;39.75
55187;BME280;55457;52.002;5.464;2023-04-22T04:45:51;100504.16;;;20.11;39.76
55187;BME280;55457;52.002;5.464;2023-04-22T04:48:17;100497.06;;;20.10;39.66
55187;BME280;55457;52.002;5.464;2023-04-22T04:50:44;100496.03;;;20.11;39.59
55187;BME280;55457;52.002;5.464;2023-04-22T04:53:10;100492.50;;;20.10;39.55
55187;BME280;55457;52.002;5.464;2023-04-22T04:55:35;100499.78;;;20.10;39.64
55187;BME280;55457;52.002;5.464;2023-04-22T04:58:01;100495.22;;;20.10;39.46
55187;BME280;55457;52.002;5.464;2023-04-22T05:00:26;100500.84;;;20.08;39.68
55187;BME280;55457;52.002;5.464;2023-04-22T05:02:52;100498.16;;;20.08;39.58
55187;BME280;55457;52.002;5.464;2023-04-22T05:05:17;100497.91;;;20.10;39.61
55187;BME280;55457;52.002;5.464;2023-04-22T05:07:43;100500.84;;;20.08;39.63
55187;BME280;55457;52.002;5.464;2023-04-22T05:10:08;100497.06;;;20.10;39.76
55187;BME280;55457;52.002;5.464;2023-04-22T05:12:34;100497.06;;;20.10;39.64
55187;BME280;55457;52.002;5.464;2023-04-22T05:14:59;100498.97;;;20.09;39.63
55187;BME280;55457;52.002;5.464;2023-04-22T05:17:25;100500.84;;;20.08;39.61
55187;BME280;55457;52.002;5.464;2023-04-22T05:19:50;100506.84;;;20.11;39.64
55187;BME280;55457;52.002;5.464;2023-04-22T05:22:16;100510.59;;;20.10;39.66
55187;BME280;55457;52.002;5.464;2023-04-22T05:24:42;100514.16;;;20.10;39.71
55187;BME280;55457;52.002;5.464;2023-04-22T05:27:07;100514.38;;;20.08;39.58
55187;BME280;55457;52.002;5.464;2023-04-22T05:29:33;100516.00;;;20.10;39.62
55187;BME280;55457;52.002;5.464;2023-04-22T05:31:58;100517.91;;;20.09;39.70
55187;BME280;55457;52.002;5.464;2023-04-22T05:34:24;100520.59;;;20.09;39.64
55187;BME280;55457;52.002;5.464;2023-04-22T05:36:50;100518.72;;;20.10;39.73
55187;BME280;55457;52.002;5.464;2023-04-22T05:39:15;100516.00;;;20.10;39.66
55187;BME280;55457;52.002;5.464;2023-04-22T05:41:40;100514.38;;;20.08;39.62
55187;BME280;55457;52.002;5.464;2023-04-22T05:44:06;100511.69;;;20.08;39.66
55187;BME280;55457;52.002;5.464;2023-04-22T05:46:31;100522.50;;;20.08;39.78
55187;BME280;55457;52.002;5.464;2023-04-22T05:48:57;100518.97;;;20.08;39.60
55187;BME280;55457;52.002;5.464;2023-04-22T05:51:23;100515.19;;;20.09;39.68
55187;BME280;55457;52.002;5.464;2023-04-22T05:53:49;100514.38;;;20.08;39.66
55187;BME280;55457;52.002;5.464;2023-04-22T05:56:14;100525.19;;;20.08;39.63
55187;BME280;55457;52.002;5.464;2023-04-22T05:58:40;100516.00;;;20.10;39.74
55187;BME280;55457;52.002;5.464;2023-04-22T06:01:05;100517.09;;;20.08;39.78
55187;BME280;55457;52.002;5.464;2023-04-22T06:03:30;100521.41;;;20.10;39.76
55187;BME280;55457;52.002;5.464;2023-04-22T06:05:56;100516.00;;;20.10;39.52
55187;BME280;55457;52.002;5.464;2023-04-22T06:08:21;100510.59;;;20.10;39.74
55187;BME280;55457;52.002;5.464;2023-04-22T06:10:47;100509.78;;;20.09;39.74
55187;BME280;55457;52.002;5.464;2023-04-22T06:13:12;100509.78;;;20.09;39.89
55187;BME280;55457;52.002;5.464;2023-04-22T06:15:38;100506.03;;;20.10;39.70
55187;BME280;55457;52.002;5.464;2023-04-22T06:18:03;100499.78;;;20.10;39.81
55187;BME280;55457;52.002;5.464;2023-04-22T06:20:28;100496.03;;;20.11;39.70
55187;BME280;55457;52.002;5.464;2023-04-22T06:22:57;100494.13;;;20.11;39.70
55187;BME280;55457;52.002;5.464;2023-04-22T06:25:22;100498.72;;;20.11;39.70
55187;BME280;55457;52.002;5.464;2023-04-22T06:27:47;100499.56;;;20.11;39.80
55187;BME280;55457;52.002;5.464;2023-04-22T06:30:13;100493.31;;;20.11;39.80
55187;BME280;55457;52.002;5.464;2023-04-22T06:32:38;100492.25;;;20.12;39.80
55187;BME280;55457;52.002;5.464;2023-04-22T06:35:03;100481.44;;;20.12;39.68
55187;BME280;55457;52.002;5.464;2023-04-22T06:37:30;100479.78;;;20.11;39.83
55187;BME280;55457;52.002;5.464;2023-04-22T06:39:56;100475.19;;;20.11;39.60
55187;BME280;55457;52.002;5.464;2023-04-22T06:42:21;100475.19;;;20.11;40.05
55187;BME280;55457;52.002;5.464;2023-04-22T06:44:46;100477.09;;;20.11;39.79
55187;BME280;55457;52.002;5.464;2023-04-22T06:47:12;100471.69;;;20.11;39.94
55187;BME280;55457;52.002;5.464;2023-04-22T06:49:37;100470.59;;;20.12;39.89
55187;BME280;55457;52.002;5.464;2023-04-22T06:52:04;100476.84;;;20.12;39.87
55187;BME280;55457;52.002;5.464;2023-04-22T06:54:29;100466.00;;;20.12;39.83
55187;BME280;55457;52.002;5.464;2023-04-22T06:56:56;100465.19;;;20.12;40.06
55187;BME280;55457;52.002;5.464;2023-04-22T06:59:21;100466.00;;;20.12;39.95
55187;BME280;55457;52.002;5.464;2023-04-22T07:01:46;100466.00;;;20.12;39.86
55187;BME280;55457;52.002;5.464;2023-04-22T07:04:12;100458.16;;;20.11;40.02
55187;BME280;55457;52.002;5.464;2023-04-22T07:06:37;100456.00;;;20.13;39.96
55187;BME280;55457;52.002;5.464;2023-04-22T07:09:03;100458.44;;;20.14;40.07
55187;BME280;55457;52.002;5.464;2023-04-22T07:11:28;100457.63;;;20.14;40.16
55187;BME280;55457;52.002;5.464;2023-04-22T07:13:56;100458.72;;;20.13;40.13
55187;BME280;55457;52.002;5.464;2023-04-22T07:16:21;100468.47;;;20.14;40.10
55187;BME280;55457;52.002;5.464;2023-04-22T07:18:46;100461.41;;;20.13;40.01
55187;BME280;55457;52.002;5.464;2023-04-22T07:21:12;100463.03;;;20.14;40.15
55187;BME280;55457;52.002;5.464;2023-04-22T07:23:37;100456.81;;;20.13;40.13
55187;BME280;55457;52.002;5.464;2023-04-22T07:26:03;100453.84;;;20.15;40.05
55187;BME280;55457;52.002;5.464;2023-04-22T07:28:28;100458.22;;;20.16;40.09
55187;BME280;55457;52.002;5.464;2023-04-22T07:30:54;100450.66;;;20.18;39.93
55187;BME280;55457;52.002;5.464;2023-04-22T07:33:19;100445.00;;;20.19;40.04
55187;BME280;55457;52.002;5.464;2023-04-22T07:35:45;100441.47;;;20.19;40.03
55187;BME280;55457;52.002;5.464;2023-04-22T07:38:11;100455.59;;;20.21;40.09
55187;BME280;55457;52.002;5.464;2023-04-22T07:40:36;100461.53;;;20.23;39.96
55187;BME280;55457;52.002;5.464;2023-04-22T07:43:02;100462.38;;;20.23;40.11
55187;BME280;55457;52.002;5.464;2023-04-22T07:45:27;100464.00;;;20.24;40.20
55187;BME280;55457;52.002;5.464;2023-04-22T07:47:53;100464.81;;;20.25;40.04
55187;BME280;55457;52.002;5.464;2023-04-22T07:50:18;100477.28;;;20.26;40.27
55187;BME280;55457;52.002;5.464;2023-04-22T07:52:43;100486.78;;;20.28;40.15
55187;BME280;55457;52.002;5.464;2023-04-22T07:55:09;100478.41;;;20.30;40.32
55187;BME280;55457;52.002;5.464;2023-04-22T07:57:34;100481.69;;;20.32;40.29
55187;BME280;55457;52.002;5.464;2023-04-22T08:00:06;100483.31;;;20.33;40.27
55187;BME280;55457;52.002;5.464;2023-04-22T08:02:32;100478.47;;;20.35;40.33
55187;BME280;55457;52.002;5.464;2023-04-22T08:04:57;100469.31;;;20.36;40.33
55187;BME280;55457;52.002;5.464;2023-04-22T08:07:23;100461.19;;;20.36;40.26
55187;BME280;55457;52.002;5.464;2023-04-22T08:09:49;100462.81;;;20.37;40.48
55187;BME280;55457;52.002;5.464;2023-04-22T08:12:14;100449.84;;;20.39;40.30
55187;BME280;55457;52.002;5.464;2023-04-22T08:14:39;100443.13;;;20.42;40.32
55187;BME280;55457;52.002;5.464;2023-04-22T08:17:05;100445.56;;;20.43;40.19
55187;BME280;55457;52.002;5.464;2023-04-22T08:19:30;100441.78;;;20.44;40.03
55187;BME280;55457;52.002;5.464;2023-04-22T08:21:55;100434.72;;;20.43;40.24
55187;BME280;55457;52.002;5.464;2023-04-22T08:24:22;100427.16;;;20.45;40.27
55187;BME280;55457;52.002;5.464;2023-04-22T08:26:47;100421.56;;;20.47;40.11
55187;BME280;55457;52.002;5.464;2023-04-22T08:29:12;100418.59;;;20.48;40.12
55187;BME280;55457;52.002;5.464;2023-04-22T08:31:38;100423.72;;;20.50;40.18
55187;BME280;55457;52.002;5.464;2023-04-22T08:34:03;100436.19;;;20.51;40.29
55187;BME280;55457;52.002;5.464;2023-04-22T08:36:30;100428.66;;;20.53;40.05
55187;BME280;55457;52.002;5.464;2023-04-22T08:38:55;100424.88;;;20.54;40.03
55187;BME280;55457;52.002;5.464;2023-04-22T08:41:21;100422.72;;;20.56;40.22
55187;BME280;55457;52.002;5.464;2023-04-22T08:43:49;100426.22;;;20.56;40.22
55187;BME280;55457;52.002;5.464;2023-04-22T08:46:16;100414.34;;;20.57;40.37
55187;BME280;55457;52.002;5.464;2023-04-22T08:48:41;100413.28;;;20.58;40.09
55187;BME280;55457;52.002;5.464;2023-04-22T08:51:07;100411.69;;;20.63;40.03
55187;BME280;55457;52.002;5.464;2023-04-22T08:53:33;100420.63;;;20.63;40.10
55187;BME280;55457;52.002;5.464;2023-04-22T08:55:58;100418.75;;;20.64;40.24
55187;BME280;55457;52.002;5.464;2023-04-22T08:58:24;100413.88;;;20.66;40.24
55187;BME280;55457;52.002;5.464;2023-04-22T09:00:51;100406.56;;;20.66;40.33
55187;BME280;55457;52.002;5.464;2023-04-22T09:03:17;100409.03;;;20.68;40.09
55187;BME280;55457;52.002;5.464;2023-04-22T09:05:44;100403.09;;;20.71;40.08
55187;BME280;55457;52.002;5.464;2023-04-22T09:08:10;100393.66;;;20.73;40.11
55187;BME280;55457;52.002;5.464;2023-04-22T09:10:36;100387.47;;;20.78;40.00
55187;BME280;55457;52.002;5.464;2023-04-22T09:13:03;100388.56;;;20.82;40.18
55187;BME280;55457;52.002;5.464;2023-04-22T09:15:30;100382.66;;;20.85;40.14
55187;BME280;55457;52.002;5.464;2023-04-22T09:17:55;100382.16;;;20.88;40.09
55187;BME280;55457;52.002;5.464;2023-04-22T09:20:27;100383.25;;;20.92;39.93
55187;BME280;55457;52.002;5.464;2023-04-22T09:22:53;100373.53;;;20.96;39.79
55187;BME280;55457;52.002;5.464;2023-04-22T09:25:20;100371.38;;;20.98;39.88
55187;BME280;55457;52.002;5.464;2023-04-22T09:27:50;100367.63;;;20.99;39.92
55187;BME280;55457;52.002;5.464;2023-04-22T09:30:17;100370.38;;;21.04;39.79
55187;BME280;55457;52.002;5.464;2023-04-22T09:32:54;100365.00;;;21.09;39.96
55187;BME280;55457;52.002;5.464;2023-04-22T09:37:51;100342.81;;;21.18;39.71
55187;BME280;55457;52.002;5.464;2023-04-22T09:40:20;100333.09;;;21.22;39.93
55187;BME280;55457;52.002;5.464;2023-04-22T09:42:50;100328.78;;;21.26;39.84
55187;BME280;55457;52.002;5.464;2023-04-22T09:45:35;100342.88;;;21.28;39.62
55187;BME280;55457;52.002;5.464;2023-04-22T09:50:43;100337.81;;;21.36;39.75
55187;BME280;55457;52.002;5.464;2023-04-22T09:53:09;100338.09;;;21.40;39.67
55187;BME280;55457;52.002;5.464;2023-04-22T09:55:37;100340.28;;;21.43;39.47
55187;BME280;55457;52.002;5.464;2023-04-22T09:58:11;100343.31;;;21.47;39.43
55187;BME280;55457;52.002;5.464;2023-04-22T10:00:52;100346.03;;;21.52;39.38
55187;BME280;55457;52.002;5.464;2023-04-22T10:03:18;100350.69;;;21.56;39.61
55187;BME280;55457;52.002;5.464;2023-04-22T10:05:44;100340.09;;;21.60;39.34
55187;BME280;55457;52.002;5.464;2023-04-22T10:08:11;100342.03;;;21.65;39.30
55187;BME280;55457;52.002;5.464;2023-04-22T10:10:37;100341.53;;;21.68;39.55
55187;BME280;55457;52.002;5.464;2023-04-22T10:13:04;100341.78;;;21.71;39.53
55187;BME280;55457;52.002;5.464;2023-04-22T10:15:34;100337.47;;;21.75;39.38
55187;BME280;55457;52.002;5.464;2023-04-22T10:18:05;100348.06;;;21.82;39.18
55187;BME280;55457;52.002;5.464;2023-04-22T10:20:35;100345.91;;;21.79;39.21
55187;BME280;55457;52.002;5.464;2023-04-22T10:23:03;100348.31;;;21.75;39.13
55187;BME280;55457;52.002;5.464;2023-04-22T10:25:29;100344.25;;;21.73;39.23
55187;BME280;55457;52.002;5.464;2023-04-22T10:28:04;100351.81;;;21.71;39.53
55187;BME280;55457;52.002;5.464;2023-04-22T10:30:32;100349.91;;;21.66;39.37
55187;BME280;55457;52.002;5.464;2023-04-22T10:33:36;100355.06;;;21.62;39.46
55187;BME280;55457;52.002;5.464;2023-04-22T10:36:09;100358.28;;;21.59;39.68
55187;BME280;55457;52.002;5.464;2023-04-22T10:41:13;100350.94;;;21.60;39.78
55187;BME280;55457;52.002;5.464;2023-04-22T10:43:47;100364.28;;;21.61;39.52
55187;BME280;55457;52.002;5.464;2023-04-22T10:49:20;100358.84;;;21.61;39.60
55187;BME280;55457;52.002;5.464;2023-04-22T10:51:50;100367.53;;;21.63;39.61
55187;BME280;55457;52.002;5.464;2023-04-22T10:57:00;100367.50;;;21.58;39.83
55187;BME280;55457;52.002;5.464;2023-04-22T10:59:29;100374.78;;;21.53;39.54
55187;BME280;55457;52.002;5.464;2023-04-22T11:02:02;100373.66;;;21.49;39.77
55187;BME280;55457;52.002;5.464;2023-04-22T11:04:29;100373.38;;;21.45;39.75
55187;BME280;55457;52.002;5.464;2023-04-22T11:09:49;100379.03;;;21.39;39.82
55187;BME280;55457;52.002;5.464;2023-04-22T11:15:07;100355.97;;;21.36;39.98
55187;BME280;55457;52.002;5.464;2023-04-22T11:17:33;100357.88;;;21.35;39.96
55187;BME280;55457;52.002;5.464;2023-04-22T11:20:00;100366.25;;;21.34;40.28
55187;BME280;55457;52.002;5.464;2023-04-22T11:22:26;100367.34;;;21.33;40.08
55187;BME280;55457;52.002;5.464;2023-04-22T11:24:59;100365.16;;;21.30;40.04
55187;BME280;55457;52.002;5.464;2023-04-22T11:27:25;100365.91;;;21.25;40.25
55187;BME280;55457;52.002;5.464;2023-04-22T11:30:18;100367.25;;;21.23;40.55
55187;BME280;55457;52.002;5.464;2023-04-22T11:32:45;100365.06;;;21.20;40.33
55187;BME280;55457;52.002;5.464;2023-04-22T11:35:22;100371.00;;;21.17;40.61
55187;BME280;55457;52.002;5.464;2023-04-22T11:37:53;100357.94;;;21.14;40.37
55187;BME280;55457;52.002;5.464;2023-04-22T11:40:25;100364.19;;;21.09;40.80
55187;BME280;55457;52.002;5.464;2023-04-22T11:42:50;100384.47;;;21.06;40.46
55187;BME280;55457;52.002;5.464;2023-04-22T11:45:16;100392.84;;;21.05;40.54
55187;BME280;55457;52.002;5.464;2023-04-22T11:47:42;100397.97;;;21.01;40.80
55187;BME280;55457;52.002;5.464;2023-04-22T11:50:11;100380.09;;;21.00;40.88
55187;BME280;55457;52.002;5.464;2023-04-22T11:52:54;100390.59;;;20.97;41.02
55187;BME280;55457;52.002;5.464;2023-04-22T11:57:51;100391.94;;;20.94;41.05
55187;BME280;55457;52.002;5.464;2023-04-22T12:00:17;100384.88;;;20.93;41.11
55187;BME280;55457;52.002;5.464;2023-04-22T12:02:53;100379.19;;;20.90;41.25
55187;BME280;55457;52.002;5.464;2023-04-22T12:05:19;100377.56;;;20.89;40.94
55187;BME280;55457;52.002;5.464;2023-04-22T12:07:44;100376.75;;;20.88;41.21
55187;BME280;55457;52.002;5.464;2023-04-22T12:10:10;100378.88;;;20.86;41.26
55187;BME280;55457;52.002;5.464;2023-04-22T12:12:38;100382.66;;;20.85;41.30
55187;BME280;55457;52.002;5.464;2023-04-22T12:15:08;100386.44;;;20.84;41.27
55187;BME280;55457;52.002;5.464;2023-04-22T12:17:34;100391.28;;;20.82;41.44
55187;BME280;55457;52.002;5.464;2023-04-22T12:20:00;100386.94;;;20.81;41.55
55187;BME280;55457;52.002;5.464;2023-04-22T12:22:26;100392.38;;;20.81;41.41
55187;BME280;55457;52.002;5.464;2023-04-22T12:24:52;100387.47;;;20.78;41.41
55187;BME280;55457;52.002;5.464;2023-04-22T12:27:18;100393.72;;;20.78;41.34
55187;BME280;55457;52.002;5.464;2023-04-22T12:29:51;100392.91;;;20.78;41.72
55187;BME280;55457;52.002;5.464;2023-04-22T12:32:19;100398.53;;;20.76;41.58
55187;BME280;55457;52.002;5.464;2023-04-22T12:34:45;100400.44;;;20.76;41.62
55187;BME280;55457;52.002;5.464;2023-04-22T12:37:10;100397.19;;;20.74;41.64
55187;BME280;55457;52.002;5.464;2023-04-22T12:39:36;100399.31;;;20.72;41.75
55187;BME280;55457;52.002;5.464;2023-04-22T12:42:02;100393.91;;;20.72;41.82
55187;BME280;55457;52.002;5.464;2023-04-22T12:44:30;100390.63;;;20.70;41.98
55187;BME280;55457;52.002;5.464;2023-04-22T12:46:56;100385.22;;;20.70;41.87
55187;BME280;55457;52.002;5.464;2023-04-22T12:49:22;100389.00;;;20.69;42.12
55187;BME280;55457;52.002;5.464;2023-04-22T12:51:47;100388.19;;;20.68;41.98
55187;BME280;55457;52.002;5.464;2023-04-22T12:54:13;100376.56;;;20.68;41.87
55187;BME280;55457;52.002;5.464;2023-04-22T12:56:38;100367.34;;;20.69;41.98
55187;BME280;55457;52.002;5.464;2023-04-22T12:59:03;100371.13;;;20.68;41.96
55187;BME280;55457;52.002;5.464;2023-04-22T13:01:29;100369.47;;;20.67;41.74
55187;BME280;55457;52.002;5.464;2023-04-22T13:03:54;100359.47;;;20.67;41.91
55187;BME280;55457;52.002;5.464;2023-04-22T13:06:20;100366.78;;;20.67;41.79
55187;BME280;55457;52.002;5.464;2023-04-22T13:08:45;100362.44;;;20.66;41.87